sensor_id;sensor_type;location;lat;lon;timestamp;pressure;altitude;pressure_sealevel;temperature;humidity
14393;BME280;7281;42.678;23.372;2022-11-15T00:01:18;95704.06;;;9.80;49.37
14393;BME280;7281;42.678;23.372;2022-11-15T00:04:04;95711.63;;;9.18;51.03
14393;BME280;7281;42.678;23.372;2022-11-15T00:06:50;95711.22;;;8.39;52.25
14393;BME280;7281;42.678;23.372;2022-11-15T00:09:36;95708.22;;;9.06;51.18
14393;BME280;7281;42.678;23.372;2022-11-15T00:12:28;95712.97;;;8.86;52.06
14393;BME280;7281;42.678;23.372;2022-11-15T00:15:13;95702.25;;;8.76;52.39
14393;BME280;7281;42.678;23.372;2022-11-15T00:17:58;95704.56;;;9.07;51.09
14393;BME280;7281;42.678;23.372;2022-11-15T00:20:44;95703.75;;;9.07;51.29
14393;BME280;7281;42.678;23.372;2022-11-15T00:23:30;95713.03;;;8.68;51.56
14393;BME280;7281;42.678;23.372;2022-11-15T00:26:16;95708.09;;;8.60;52.29
14393;BME280;7281;42.678;23.372;2022-11-15T00:29:01;95701.53;;;8.69;50.93
14393;BME280;7281;42.678;23.372;2022-11-15T00:31:47;95694.97;;;8.78;50.81
14393;BME280;7281;42.678;23.372;2022-11-15T00:34:32;95694.28;;;8.71;51.71
14393;BME280;7281;42.678;23.372;2022-11-15T00:37:17;95694.75;;;8.68;51.31
14393;BME280;7281;42.678;23.372;2022-11-15T00:40:03;95682.59;;;8.85;50.91
14393;BME280;7281;42.678;23.372;2022-11-15T00:42:49;95694.16;;;7.71;54.26
14393;BME280;7281;42.678;23.372;2022-11-15T00:45:34;95689.09;;;6.97;56.55
14393;BME280;7281;42.678;23.372;2022-11-15T00:48:19;95693.44;;;7.28;55.58
14393;BME280;7281;42.678;23.372;2022-11-15T00:51:05;95671.50;;;7.71;54.15
14393;BME280;7281;42.678;23.372;2022-11-15T00:53:51;95671.91;;;8.04;53.10
14393;BME280;7281;42.678;23.372;2022-11-15T00:56:36;95688.03;;;8.13;52.72
14393;BME280;7281;42.678;23.372;2022-11-15T00:59:21;95686.00;;;8.33;51.22
14393;BME280;7281;42.678;23.372;2022-11-15T01:02:07;95684.91;;;8.23;51.60
14393;BME280;7281;42.678;23.372;2022-11-15T01:04:52;95683.25;;;8.28;51.31
14393;BME280;7281;42.678;23.372;2022-11-15T01:07:37;95681.16;;;8.48;51.24
14393;BME280;7281;42.678;23.372;2022-11-15T01:10:23;95682.94;;;8.18;51.43
14393;BME280;7281;42.678;23.372;2022-11-15T01:13:09;95679.09;;;8.39;51.71
14393;BME280;7281;42.678;23.372;2022-11-15T01:15:55;95676.88;;;8.24;51.97
14393;BME280;7281;42.678;23.372;2022-11-15T01:18:41;95679.44;;;8.42;51.60
14393;BME280;7281;42.678;23.372;2022-11-15T01:21:27;95677.31;;;8.21;52.18
14393;BME280;7281;42.678;23.372;2022-11-15T01:24:12;95680.78;;;8.33;51.73
14393;BME280;7281;42.678;23.372;2022-11-15T01:26:58;95669.03;;;8.65;50.74
14393;BME280;7281;42.678;23.372;2022-11-15T01:29:44;95672.00;;;8.57;50.49
14393;BME280;7281;42.678;23.372;2022-11-15T01:32:29;95678.41;;;8.43;50.39
14393;BME280;7281;42.678;23.372;2022-11-15T01:35:15;95674.41;;;8.29;50.71
14393;BME280;7281;42.678;23.372;2022-11-15T01:38:00;95667.84;;;8.38;50.31
14393;BME280;7281;42.678;23.372;2022-11-15T01:40:46;95677.06;;;8.52;50.59
14393;BME280;7281;42.678;23.372;2022-11-15T01:43:36;95671.78;;;8.59;50.04
14393;BME280;7281;42.678;23.372;2022-11-15T01:49:14;95681.75;;;8.50;50.17
14393;BME280;7281;42.678;23.372;2022-11-15T01:52:02;95673.88;;;8.39;50.55
14393;BME280;7281;42.678;23.372;2022-11-15T01:54:56;95671.78;;;8.29;50.98
14393;BME280;7281;42.678;23.372;2022-11-15T01:57:47;95666.88;;;8.21;50.23
14393;BME280;7281;42.678;23.372;2022-11-15T02:00:33;95668.91;;;8.19;50.44
14393;BME280;7281;42.678;23.372;2022-11-15T02:03:20;95671.81;;;8.11;50.31
14393;BME280;7281;42.678;23.372;2022-11-15T02:06:09;95671.53;;;8.01;51.28
14393;BME280;7281;42.678;23.372;2022-11-15T02:08:56;95677.06;;;7.93;51.49
14393;BME280;7281;42.678;23.372;2022-11-15T02:11:42;95674.59;;;7.62;51.13
14393;BME280;7281;42.678;23.372;2022-11-15T02:14:29;95661.00;;;8.07;50.65
14393;BME280;7281;42.678;23.372;2022-11-15T02:20:50;95671.22;;;8.27;50.03
14393;BME280;7281;42.678;23.372;2022-11-15T02:27:47;95663.84;;;8.06;49.50
14393;BME280;7281;42.678;23.372;2022-11-15T02:30:45;95667.50;;;7.69;50.33
14393;BME280;7281;42.678;23.372;2022-11-15T02:33:44;95668.56;;;7.79;50.90
14393;BME280;7281;42.678;23.372;2022-11-15T02:39:41;95664.75;;;7.82;49.68
14393;BME280;7281;42.678;23.372;2022-11-15T02:42:33;95651.66;;;8.00;49.51
14393;BME280;7281;42.678;23.372;2022-11-15T02:45:47;95663.16;;;7.45;50.53
14393;BME280;7281;42.678;23.372;2022-11-15T02:48:35;95660.03;;;7.54;50.65
14393;BME280;7281;42.678;23.372;2022-11-15T02:51:22;95662.16;;;7.46;50.43
14393;BME280;7281;42.678;23.372;2022-11-15T02:54:12;95668.66;;;7.73;49.44
14393;BME280;7281;42.678;23.372;2022-11-15T02:57:14;95669.47;;;7.55;50.33
14393;BME280;7281;42.678;23.372;2022-11-15T03:00:05;95672.84;;;7.56;49.92
14393;BME280;7281;42.678;23.372;2022-11-15T03:09:05;95670.75;;;7.28;51.09
14393;BME280;7281;42.678;23.372;2022-11-15T03:12:01;95665.47;;;7.35;51.58
14393;BME280;7281;42.678;23.372;2022-11-15T03:14:56;95667.63;;;7.19;51.97
14393;BME280;7281;42.678;23.372;2022-11-15T03:17:55;95647.56;;;7.02;52.61
14393;BME280;7281;42.678;23.372;2022-11-15T03:20:44;95665.25;;;7.18;52.47
14393;BME280;7281;42.678;23.372;2022-11-15T03:23:31;95669.66;;;7.17;52.85
14393;BME280;7281;42.678;23.372;2022-11-15T03:26:19;95662.44;;;7.38;52.32
14393;BME280;7281;42.678;23.372;2022-11-15T03:29:22;95662.88;;;7.53;51.36
14393;BME280;7281;42.678;23.372;2022-11-15T03:32:13;95643.09;;;7.27;51.85
14393;BME280;7281;42.678;23.372;2022-11-15T03:35:24;95661.56;;;7.26;52.48
14393;BME280;7281;42.678;23.372;2022-11-15T03:38:24;95659.53;;;6.85;53.56
14393;BME280;7281;42.678;23.372;2022-11-15T03:41:33;95642.28;;;7.08;53.21
14393;BME280;7281;42.678;23.372;2022-11-15T03:44:32;95647.22;;;7.16;52.77
14393;BME280;7281;42.678;23.372;2022-11-15T03:50:53;95638.38;;;6.75;53.60
14393;BME280;7281;42.678;23.372;2022-11-15T03:53:40;95639.97;;;7.18;52.81
14393;BME280;7281;42.678;23.372;2022-11-15T03:56:26;95640.97;;;7.17;52.88
14393;BME280;7281;42.678;23.372;2022-11-15T03:59:11;95637.38;;;7.18;52.84
14393;BME280;7281;42.678;23.372;2022-11-15T04:01:57;95634.19;;;7.35;52.02
14393;BME280;7281;42.678;23.372;2022-11-15T04:04:42;95632.88;;;7.07;53.37
14393;BME280;7281;42.678;23.372;2022-11-15T04:07:28;95626.00;;;7.49;51.75
14393;BME280;7281;42.678;23.372;2022-11-15T04:10:14;95627.44;;;7.27;52.12
14393;BME280;7281;42.678;23.372;2022-11-15T04:13:02;95629.63;;;7.48;52.30
14393;BME280;7281;42.678;23.372;2022-11-15T04:15:47;95627.81;;;7.31;52.24
14393;BME280;7281;42.678;23.372;2022-11-15T04:18:32;95632.16;;;7.37;52.36
14393;BME280;7281;42.678;23.372;2022-11-15T04:21:18;95623.53;;;7.54;51.59
14393;BME280;7281;42.678;23.372;2022-11-15T04:24:22;95622.16;;;7.34;51.84
14393;BME280;7281;42.678;23.372;2022-11-15T04:27:07;95616.78;;;6.92;52.55
14393;BME280;7281;42.678;23.372;2022-11-15T04:29:53;95617.09;;;7.21;51.81
14393;BME280;7281;42.678;23.372;2022-11-15T04:32:38;95618.25;;;7.25;52.21
14393;BME280;7281;42.678;23.372;2022-11-15T04:35:23;95624.75;;;7.15;52.52
14393;BME280;7281;42.678;23.372;2022-11-15T04:38:10;95615.03;;;6.86;52.80
14393;BME280;7281;42.678;23.372;2022-11-15T04:40:56;95630.66;;;6.86;53.60
14393;BME280;7281;42.678;23.372;2022-11-15T04:43:41;95629.19;;;6.72;54.16
14393;BME280;7281;42.678;23.372;2022-11-15T04:46:27;95626.38;;;6.92;54.19
14393;BME280;7281;42.678;23.372;2022-11-15T04:49:12;95625.69;;;7.03;54.71
14393;BME280;7281;42.678;23.372;2022-11-15T04:51:57;95620.72;;;7.19;54.72
14393;BME280;7281;42.678;23.372;2022-11-15T04:54:43;95609.06;;;7.22;54.47
14393;BME280;7281;42.678;23.372;2022-11-15T04:57:29;95626.06;;;7.43;54.31
14393;BME280;7281;42.678;23.372;2022-11-15T05:00:16;95621.38;;;7.33;54.61
14393;BME280;7281;42.678;23.372;2022-11-15T05:03:02;95621.16;;;7.16;56.51
14393;BME280;7281;42.678;23.372;2022-11-15T05:06:06;95616.22;;;7.27;56.41
14393;BME280;7281;42.678;23.372;2022-11-15T05:08:52;95625.84;;;7.62;55.76
14393;BME280;7281;42.678;23.372;2022-11-15T05:11:37;95630.25;;;7.80;55.38
14393;BME280;7281;42.678;23.372;2022-11-15T05:14:23;95626.13;;;7.72;56.10
14393;BME280;7281;42.678;23.372;2022-11-15T05:17:08;95631.28;;;7.79;55.87
14393;BME280;7281;42.678;23.372;2022-11-15T05:19:54;95631.84;;;7.63;56.79
14393;BME280;7281;42.678;23.372;2022-11-15T05:22:39;95629.25;;;7.45;61.45
14393;BME280;7281;42.678;23.372;2022-11-15T05:25:25;95610.97;;;7.63;62.02
14393;BME280;7281;42.678;23.372;2022-11-15T05:28:11;95624.19;;;7.97;58.20
14393;BME280;7281;42.678;23.372;2022-11-15T05:31:04;95613.22;;;8.07;57.85
14393;BME280;7281;42.678;23.372;2022-11-15T05:33:51;95630.88;;;7.46;59.52
14393;BME280;7281;42.678;23.372;2022-11-15T05:36:41;95631.31;;;7.61;59.25
14393;BME280;7281;42.678;23.372;2022-11-15T05:39:27;95625.34;;;7.72;58.79
14393;BME280;7281;42.678;23.372;2022-11-15T05:42:14;95625.66;;;7.93;58.37
14393;BME280;7281;42.678;23.372;2022-11-15T05:45:02;95619.72;;;8.16;57.48
14393;BME280;7281;42.678;23.372;2022-11-15T05:47:49;95631.03;;;8.28;58.88
14393;BME280;7281;42.678;23.372;2022-11-15T05:50:38;95625.34;;;7.72;61.26
14393;BME280;7281;42.678;23.372;2022-11-15T05:53:25;95620.75;;;8.15;60.18
14393;BME280;7281;42.678;23.372;2022-11-15T05:56:11;95627.63;;;7.80;60.58
14393;BME280;7281;42.678;23.372;2022-11-15T05:58:57;95616.19;;;7.63;61.46
14393;BME280;7281;42.678;23.372;2022-11-15T06:01:44;95622.06;;;8.24;60.36
14393;BME280;7281;42.678;23.372;2022-11-15T06:04:29;95619.44;;;8.24;60.36
14393;BME280;7281;42.678;23.372;2022-11-15T06:07:15;95635.56;;;8.03;61.14
14393;BME280;7281;42.678;23.372;2022-11-15T06:10:00;95617.41;;;8.26;59.28
14393;BME280;7281;42.678;23.372;2022-11-15T06:12:46;95630.72;;;7.88;63.21
14393;BME280;7281;42.678;23.372;2022-11-15T06:15:32;95637.84;;;8.29;60.38
14393;BME280;7281;42.678;23.372;2022-11-15T06:18:19;95630.53;;;8.61;59.17
14393;BME280;7281;42.678;23.372;2022-11-15T06:21:04;95623.22;;;8.40;61.03
14393;BME280;7281;42.678;23.372;2022-11-15T06:23:50;95637.94;;;8.75;58.20
14393;BME280;7281;42.678;23.372;2022-11-15T06:26:36;95636.38;;;8.97;57.22
14393;BME280;7281;42.678;23.372;2022-11-15T06:29:21;95631.59;;;8.94;57.35
14393;BME280;7281;42.678;23.372;2022-11-15T06:32:07;95631.00;;;8.92;57.08
14393;BME280;7281;42.678;23.372;2022-11-15T06:34:52;95637.16;;;8.75;57.46
14393;BME280;7281;42.678;23.372;2022-11-15T06:37:38;95633.06;;;8.26;59.13
14393;BME280;7281;42.678;23.372;2022-11-15T06:40:23;95631.63;;;8.12;60.91
14393;BME280;7281;42.678;23.372;2022-11-15T06:43:08;95623.84;;;8.76;59.71
14393;BME280;7281;42.678;23.372;2022-11-15T06:45:54;95627.28;;;8.88;58.44
14393;BME280;7281;42.678;23.372;2022-11-15T06:48:39;95625.00;;;8.80;57.62
14393;BME280;7281;42.678;23.372;2022-11-15T06:51:25;95624.56;;;9.06;56.86
14393;BME280;7281;42.678;23.372;2022-11-15T06:54:10;95625.00;;;8.80;57.87
14393;BME280;7281;42.678;23.372;2022-11-15T06:56:56;95622.25;;;9.21;57.28
14393;BME280;7281;42.678;23.372;2022-11-15T06:59:41;95623.84;;;9.23;56.64
14393;BME280;7281;42.678;23.372;2022-11-15T07:02:26;95619.88;;;9.32;56.41
14393;BME280;7281;42.678;23.372;2022-11-15T07:05:13;95622.72;;;9.18;57.13
14393;BME280;7281;42.678;23.372;2022-11-15T07:07:59;95619.44;;;9.11;56.65
14393;BME280;7281;42.678;23.372;2022-11-15T07:10:44;95619.44;;;8.88;57.85
14393;BME280;7281;42.678;23.372;2022-11-15T07:13:31;95620.56;;;8.81;58.47
14393;BME280;7281;42.678;23.372;2022-11-15T07:16:20;95622.84;;;9.00;57.70
14393;BME280;7281;42.678;23.372;2022-11-15T07:19:06;95618.41;;;9.12;57.67
14393;BME280;7281;42.678;23.372;2022-11-15T07:21:53;95617.81;;;8.64;59.01
14393;BME280;7281;42.678;23.372;2022-11-15T07:24:39;95611.47;;;8.95;57.65
14393;BME280;7281;42.678;23.372;2022-11-15T07:27:24;95605.31;;;9.12;57.38
14393;BME280;7281;42.678;23.372;2022-11-15T07:30:11;95612.38;;;9.00;57.09
14393;BME280;7281;42.678;23.372;2022-11-15T07:33:00;95619.31;;;9.30;56.38
14393;BME280;7281;42.678;23.372;2022-11-15T07:35:46;95618.53;;;9.06;56.37
14393;BME280;7281;42.678;23.372;2022-11-15T07:38:35;95616.94;;;9.05;56.65
14393;BME280;7281;42.678;23.372;2022-11-15T07:41:26;95612.50;;;9.29;56.52
14393;BME280;7281;42.678;23.372;2022-11-15T07:44:12;95620.91;;;9.07;56.14
14393;BME280;7281;42.678;23.372;2022-11-15T07:46:57;95611.94;;;9.27;56.50
14393;BME280;7281;42.678;23.372;2022-11-15T07:49:43;95614.31;;;9.40;56.09
14393;BME280;7281;42.678;23.372;2022-11-15T07:52:28;95603.84;;;9.16;56.01
14393;BME280;7281;42.678;23.372;2022-11-15T07:55:13;95602.72;;;9.12;55.99
14393;BME280;7281;42.678;23.372;2022-11-15T07:58:10;95606.22;;;9.30;56.41
14393;BME280;7281;42.678;23.372;2022-11-15T08:00:55;95609.88;;;9.17;56.79
14393;BME280;7281;42.678;23.372;2022-11-15T08:03:41;95614.31;;;9.16;56.54
14393;BME280;7281;42.678;23.372;2022-11-15T08:06:27;95609.97;;;9.10;56.29
14393;BME280;7281;42.678;23.372;2022-11-15T08:09:13;95604.41;;;9.07;56.68
14393;BME280;7281;42.678;23.372;2022-11-15T08:11:59;95609.97;;;9.34;55.98
14393;BME280;7281;42.678;23.372;2022-11-15T08:14:44;95601.97;;;9.52;55.80
14393;BME280;7281;42.678;23.372;2022-11-15T08:17:30;95609.75;;;9.23;56.59
14393;BME280;7281;42.678;23.372;2022-11-15T08:20:18;95600.31;;;9.23;57.40
14393;BME280;7281;42.678;23.372;2022-11-15T08:23:05;95601.97;;;9.52;56.66
14393;BME280;7281;42.678;23.372;2022-11-15T08:25:51;95596.53;;;9.42;56.93
14393;BME280;7281;42.678;23.372;2022-11-15T08:28:36;95594.69;;;9.54;56.50
14393;BME280;7281;42.678;23.372;2022-11-15T08:31:22;95596.09;;;9.21;57.50
14393;BME280;7281;42.678;23.372;2022-11-15T08:34:07;95600.56;;;9.09;57.75
14393;BME280;7281;42.678;23.372;2022-11-15T08:36:53;95609.09;;;8.93;57.99
14393;BME280;7281;42.678;23.372;2022-11-15T08:39:38;95603.66;;;9.06;58.63
14393;BME280;7281;42.678;23.372;2022-11-15T08:42:24;95598.84;;;9.27;57.50
14393;BME280;7281;42.678;23.372;2022-11-15T08:45:09;95591.91;;;9.09;58.48
14393;BME280;7281;42.678;23.372;2022-11-15T08:47:56;95592.69;;;9.33;57.78
14393;BME280;7281;42.678;23.372;2022-11-15T08:50:42;95588.63;;;9.25;58.39
14393;BME280;7281;42.678;23.372;2022-11-15T08:53:28;95583.16;;;9.27;58.00
14393;BME280;7281;42.678;23.372;2022-11-15T08:56:15;95589.13;;;9.50;57.82
14393;BME280;7281;42.678;23.372;2022-11-15T08:59:00;95579.19;;;9.24;57.62
14393;BME280;7281;42.678;23.372;2022-11-15T09:01:45;95579.19;;;9.12;57.86
14393;BME280;7281;42.678;23.372;2022-11-15T09:04:31;95561.09;;;9.23;57.73
14393;BME280;7281;42.678;23.372;2022-11-15T09:07:17;95551.56;;;9.56;57.52
14393;BME280;7281;42.678;23.372;2022-11-15T09:10:03;95561.00;;;9.57;56.92
14393;BME280;7281;42.678;23.372;2022-11-15T09:12:49;95559.47;;;9.73;55.52
14393;BME280;7281;42.678;23.372;2022-11-15T09:15:34;95552.47;;;9.90;55.70
14393;BME280;7281;42.678;23.372;2022-11-15T09:18:20;95546.78;;;9.65;56.20
14393;BME280;7281;42.678;23.372;2022-11-15T09:21:08;95551.63;;;9.73;56.18
14393;BME280;7281;42.678;23.372;2022-11-15T09:23:55;95539.41;;;10.06;54.90
14393;BME280;7281;42.678;23.372;2022-11-15T09:26:41;95546.84;;;9.70;55.65
14393;BME280;7281;42.678;23.372;2022-11-15T09:29:27;95546.00;;;9.01;58.87
14393;BME280;7281;42.678;23.372;2022-11-15T09:32:28;95538.94;;;9.65;57.09
14393;BME280;7281;42.678;23.372;2022-11-15T09:35:20;95528.91;;;9.62;56.64
14393;BME280;7281;42.678;23.372;2022-11-15T09:38:05;95509.66;;;9.96;56.27
14393;BME280;7281;42.678;23.372;2022-11-15T09:41:08;95520.56;;;9.93;56.72
14393;BME280;7281;42.678;23.372;2022-11-15T09:50:27;95507.91;;;10.01;55.89
14393;BME280;7281;42.678;23.372;2022-11-15T09:52:57;95503.31;;;10.08;55.31
14393;BME280;7281;42.678;23.372;2022-11-15T09:55:33;95498.81;;;10.54;54.14
14393;BME280;7281;42.678;23.372;2022-11-15T09:58:18;95501.56;;;10.64;53.66
14393;BME280;7281;42.678;23.372;2022-11-15T10:00:51;95480.22;;;9.89;55.75
14393;BME280;7281;42.678;23.372;2022-11-15T10:03:31;95488.25;;;10.65;53.89
14393;BME280;7281;42.678;23.372;2022-11-15T10:06:02;95489.22;;;10.26;54.48
14393;BME280;7281;42.678;23.372;2022-11-15T10:11:09;95477.59;;;10.93;54.20
14393;BME280;7281;42.678;23.372;2022-11-15T10:14:00;95471.19;;;10.84;53.68
14393;BME280;7281;42.678;23.372;2022-11-15T10:24:35;95450.75;;;10.86;54.39
14393;BME280;7281;42.678;23.372;2022-11-15T10:27:10;95448.63;;;11.27;52.75
14393;BME280;7281;42.678;23.372;2022-11-15T10:29:46;95459.13;;;11.53;52.34
14393;BME280;7281;42.678;23.372;2022-11-15T10:32:15;95439.31;;;12.26;51.51
14393;BME280;7281;42.678;23.372;2022-11-15T10:34:43;95447.78;;;11.69;52.72
14393;BME280;7281;42.678;23.372;2022-11-15T10:37:10;95434.44;;;11.76;52.80
14393;BME280;7281;42.678;23.372;2022-11-15T10:39:38;95429.53;;;12.58;51.23
14393;BME280;7281;42.678;23.372;2022-11-15T10:42:28;95427.44;;;13.06;50.00
14393;BME280;7281;42.678;23.372;2022-11-15T10:44:55;95421.47;;;11.91;51.53
14393;BME280;7281;42.678;23.372;2022-11-15T10:47:28;95413.53;;;12.22;51.78
14393;BME280;7281;42.678;23.372;2022-11-15T10:50:11;95416.47;;;12.26;50.90
14393;BME280;7281;42.678;23.372;2022-11-15T10:52:52;95400.44;;;12.69;49.84
14393;BME280;7281;42.678;23.372;2022-11-15T10:55:23;95406.88;;;12.98;49.64
14393;BME280;7281;42.678;23.372;2022-11-15T11:00:54;95393.81;;;13.29;48.07
14393;BME280;7281;42.678;23.372;2022-11-15T11:03:29;95395.91;;;13.27;48.34
14393;BME280;7281;42.678;23.372;2022-11-15T11:06:26;95384.28;;;13.02;48.69
14393;BME280;7281;42.678;23.372;2022-11-15T11:09:01;95371.25;;;13.68;48.08
14393;BME280;7281;42.678;23.372;2022-11-15T11:11:54;95377.59;;;12.75;49.21
14393;BME280;7281;42.678;23.372;2022-11-15T11:16:54;95371.56;;;12.84;49.23
14393;BME280;7281;42.678;23.372;2022-11-15T11:22:16;95363.63;;;12.69;49.84
14393;BME280;7281;42.678;23.372;2022-11-15T11:25:08;95350.56;;;12.94;49.74
14393;BME280;7281;42.678;23.372;2022-11-15T11:33:44;95325.34;;;12.32;50.37
14393;BME280;7281;42.678;23.372;2022-11-15T11:36:39;95329.59;;;13.14;48.75
14393;BME280;7281;42.678;23.372;2022-11-15T11:47:40;95294.78;;;14.33;46.11
14393;BME280;7281;42.678;23.372;2022-11-15T11:50:24;95294.28;;;15.72;43.30
14393;BME280;7281;42.678;23.372;2022-11-15T11:53:00;95291.16;;;16.46;41.57
14393;BME280;7281;42.678;23.372;2022-11-15T11:55:40;95291.59;;;16.30;41.70
14393;BME280;7281;42.678;23.372;2022-11-15T12:03:44;95268.94;;;16.71;40.02
14393;BME280;7281;42.678;23.372;2022-11-15T12:06:27;95264.09;;;17.84;38.49
14393;BME280;7281;42.678;23.372;2022-11-15T12:09:03;95251.78;;;18.61;38.07
14393;BME280;7281;42.678;23.372;2022-11-15T12:11:50;95248.06;;;18.62;37.40
14393;BME280;7281;42.678;23.372;2022-11-15T12:14:42;95244.72;;;18.43;37.30
14393;BME280;7281;42.678;23.372;2022-11-15T12:17:11;95247.00;;;18.99;37.26
14393;BME280;7281;42.678;23.372;2022-11-15T12:19:39;95225.50;;;19.23;36.30
14393;BME280;7281;42.678;23.372;2022-11-15T12:22:15;95238.50;;;19.10;36.89
14393;BME280;7281;42.678;23.372;2022-11-15T12:24:56;95230.06;;;19.31;36.19
14393;BME280;7281;42.678;23.372;2022-11-15T12:27:56;95210.69;;;19.74;36.42
14393;BME280;7281;42.678;23.372;2022-11-15T12:30:38;95218.44;;;20.71;33.84
14393;BME280;7281;42.678;23.372;2022-11-15T12:33:37;95208.59;;;20.24;34.17
14393;BME280;7281;42.678;23.372;2022-11-15T12:36:40;95204.03;;;20.72;33.08
14393;BME280;7281;42.678;23.372;2022-11-15T12:39:11;95206.28;;;21.22;33.50
14393;BME280;7281;42.678;23.372;2022-11-15T12:47:25;95184.09;;;21.89;31.41
14393;BME280;7281;42.678;23.372;2022-11-15T12:49:53;95180.81;;;21.67;31.28
14393;BME280;7281;42.678;23.372;2022-11-15T12:52:20;95176.97;;;22.02;31.63
14393;BME280;7281;42.678;23.372;2022-11-15T12:54:53;95184.19;;;21.21;31.80
14393;BME280;7281;42.678;23.372;2022-11-15T12:57:29;95179.16;;;21.37;31.75
14393;BME280;7281;42.678;23.372;2022-11-15T13:00:04;95182.38;;;22.23;31.16
14393;BME280;7281;42.678;23.372;2022-11-15T13:02:43;95175.22;;;21.43;31.87
14393;BME280;7281;42.678;23.372;2022-11-15T13:17:49;95165.84;;;21.02;31.86
14393;BME280;7281;42.678;23.372;2022-11-15T13:20:32;95166.41;;;20.09;33.21
14393;BME280;7281;42.678;23.372;2022-11-15T13:23:11;95160.16;;;20.61;32.89
14393;BME280;7281;42.678;23.372;2022-11-15T13:28:46;95151.38;;;20.52;33.34
14393;BME280;7281;42.678;23.372;2022-11-15T13:31:40;95155.69;;;20.31;33.55
14393;BME280;7281;42.678;23.372;2022-11-15T13:34:28;95147.75;;;19.92;34.28
14393;BME280;7281;42.678;23.372;2022-11-15T13:39:49;95148.22;;;17.85;37.03
14393;BME280;7281;42.678;23.372;2022-11-15T13:42:17;95155.34;;;17.11;38.59
14393;BME280;7281;42.678;23.372;2022-11-15T13:44:59;95162.00;;;16.72;39.26
14393;BME280;7281;42.678;23.372;2022-11-15T13:47:27;95144.78;;;16.13;40.39
14393;BME280;7281;42.678;23.372;2022-11-15T13:49:59;95155.44;;;15.85;42.16
14393;BME280;7281;42.678;23.372;2022-11-15T13:52:33;95156.25;;;15.57;42.74
14393;BME280;7281;42.678;23.372;2022-11-15T13:55:03;95155.16;;;15.63;42.13
14393;BME280;7281;42.678;23.372;2022-11-15T13:57:39;95151.09;;;15.47;42.44
14393;BME280;7281;42.678;23.372;2022-11-15T14:02:54;95153.44;;;15.14;43.13
14393;BME280;7281;42.678;23.372;2022-11-15T14:05:24;95158.34;;;14.97;43.91
14393;BME280;7281;42.678;23.372;2022-11-15T14:08:00;95149.47;;;14.88;44.74
14393;BME280;7281;42.678;23.372;2022-11-15T14:10:34;95145.88;;;14.69;44.53
14393;BME280;7281;42.678;23.372;2022-11-15T14:13:04;95144.72;;;14.85;44.10
14393;BME280;7281;42.678;23.372;2022-11-15T14:15:38;95149.28;;;14.75;44.58
14393;BME280;7281;42.678;23.372;2022-11-15T14:18:06;95152.75;;;14.70;44.69
14393;BME280;7281;42.678;23.372;2022-11-15T14:20:38;95143.75;;;14.71;44.28
14393;BME280;7281;42.678;23.372;2022-11-15T14:23:26;95137.44;;;14.72;44.65
14393;BME280;7281;42.678;23.372;2022-11-15T14:25:54;95148.13;;;14.52;44.97
14393;BME280;7281;42.678;23.372;2022-11-15T14:30:54;95143.91;;;14.51;44.93
14393;BME280;7281;42.678;23.372;2022-11-15T14:33:25;95140.72;;;14.54;44.52
14393;BME280;7281;42.678;23.372;2022-11-15T14:35:56;95147.59;;;14.50;44.91
14393;BME280;7281;42.678;23.372;2022-11-15T14:38:24;95152.44;;;14.33;45.33
14393;BME280;7281;42.678;23.372;2022-11-15T14:40:51;95146.63;;;14.36;44.98
14393;BME280;7281;42.678;23.372;2022-11-15T14:43:18;95146.19;;;14.14;45.50
14393;BME280;7281;42.678;23.372;2022-11-15T14:45:45;95150.47;;;14.05;46.35
14393;BME280;7281;42.678;23.372;2022-11-15T14:48:12;95146.75;;;14.06;46.01
14393;BME280;7281;42.678;23.372;2022-11-15T14:50:39;95151.47;;;14.09;45.95
14393;BME280;7281;42.678;23.372;2022-11-15T14:53:06;95150.25;;;13.81;46.66
14393;BME280;7281;42.678;23.372;2022-11-15T14:55:35;95141.34;;;13.67;47.12
14393;BME280;7281;42.678;23.372;2022-11-15T14:58:05;95152.66;;;13.78;46.87
14393;BME280;7281;42.678;23.372;2022-11-15T15:00:39;95140.84;;;13.65;46.51
14393;BME280;7281;42.678;23.372;2022-11-15T15:03:07;95153.78;;;13.57;47.78
14393;BME280;7281;42.678;23.372;2022-11-15T15:05:37;95145.59;;;13.68;46.97
14393;BME280;7281;42.678;23.372;2022-11-15T15:08:05;95144.78;;;13.68;47.68
14393;BME280;7281;42.678;23.372;2022-11-15T15:10:35;95128.53;;;13.46;46.94
14393;BME280;7281;42.678;23.372;2022-11-15T15:13:21;95152.19;;;13.51;47.15
14393;BME280;7281;42.678;23.372;2022-11-15T15:15:49;95141.72;;;13.36;47.56
14393;BME280;7281;42.678;23.372;2022-11-15T15:18:17;95143.84;;;13.13;48.75
14393;BME280;7281;42.678;23.372;2022-11-15T15:20:53;95125.41;;;13.23;47.61
14393;BME280;7281;42.678;23.372;2022-11-15T15:23:20;95132.78;;;13.16;48.57
14393;BME280;7281;42.678;23.372;2022-11-15T15:25:49;95135.41;;;12.86;49.34
14393;BME280;7281;42.678;23.372;2022-11-15T15:28:16;95143.56;;;12.90;49.69
14393;BME280;7281;42.678;23.372;2022-11-15T15:30:43;95110.16;;;12.95;49.04
14393;BME280;7281;42.678;23.372;2022-11-15T15:33:10;95134.88;;;12.99;48.92
14393;BME280;7281;42.678;23.372;2022-11-15T15:35:37;95133.28;;;12.83;49.58
14393;BME280;7281;42.678;23.372;2022-11-15T15:38:04;95137.50;;;12.69;50.37
14393;BME280;7281;42.678;23.372;2022-11-15T15:40:32;95139.59;;;12.67;50.23
14393;BME280;7281;42.678;23.372;2022-11-15T15:42:59;95131.44;;;12.49;49.75
14393;BME280;7281;42.678;23.372;2022-11-15T15:45:27;95139.34;;;12.59;49.54
14393;BME280;7281;42.678;23.372;2022-11-15T15:47:54;95136.44;;;12.65;49.21
14393;BME280;7281;42.678;23.372;2022-11-15T15:52:52;95142.75;;;12.64;48.71
14393;BME280;7281;42.678;23.372;2022-11-15T15:55:19;95132.19;;;12.29;49.24
14393;BME280;7281;42.678;23.372;2022-11-15T15:57:46;95129.06;;;12.57;48.52
14393;BME280;7281;42.678;23.372;2022-11-15T16:00:13;95128.03;;;12.73;48.28
14393;BME280;7281;42.678;23.372;2022-11-15T16:02:41;95133.81;;;12.70;48.18
14393;BME280;7281;42.678;23.372;2022-11-15T16:05:09;95127.00;;;12.69;48.19
14393;BME280;7281;42.678;23.372;2022-11-15T16:07:37;95110.13;;;12.40;48.28
14393;BME280;7281;42.678;23.372;2022-11-15T16:10:26;95131.69;;;12.52;48.57